Terminal Aerodrome Forecast
Issued by NWS

Home | Current Version | Previous Version | Text Only | Print | Product List | Glossary Off
Versions: 1 2 3 4 5 6 7 8 9 10 11 12 13 14 15 16 17 18 19 20 21 22 23 24 25 26 27 28 29 30 31 32 33 34 35

000
FTUS43 KLOT 291100
TAFORD
TAF
KORD 291134Z 2912/3018 29005KT P6SM SCT080
     FM291500 33008KT P6SM SCT050
     FM292200 32007KT P6SM VCSH BKN040 PROB30 2922/3001 -TSRA
      BKN040CB
     FM300100 29005KT P6SM FEW050 SCT150
     FM301400 31006KT P6SM SCT150=

USA.gov is the U.S. government's official web portal to all federal, state and local government web resources and services.